Weather at Taylor Airstrip

Public forecast

Using degrees Fahrenheit for public forecast. Weather courtesy of forecast.io.

Closest aviation weather report (METAR) to Taylor Airstrip

Closest report is Searcy Municipal Airport, 16.3 nm (30.2 km) NW. Retrieved 2020/11/23 16:56 UTC (2 hours ago):

KSRC 231656Z AUTO 08003KT 10SM FEW022 A3041 RMK AO2 SLPNO FZRANO

Closest aviation forecast (TAF) to Taylor Airstrip

Closest forecast is Little Rock Air Force Base, 29.8 nm (55.2 km) W. Retrieved 2020/11/23 15:06 UTC (3 hours ago):

TAF KLRF 231500Z 2315/2421 VRB06KT 9999 FEW200 QNH3032INS BECMG 2319/2320 12006KT 9999 SKC QNH3011INS BECMG 2418/2419 18009KT 9999 SCT020 BKN025 QNH2999INS TX12/2319Z TN06/2408Z